createdAt,value
2022-09-24T00:15:33.077Z,13.61
2022-09-24T00:35:33.059Z,13.51
2022-09-24T00:55:33.065Z,13.41
2022-09-24T01:55:33.032Z,13.38
2022-09-24T02:35:33.027Z,13.32
2022-09-24T02:55:33.035Z,13.21
2022-09-24T03:15:33.025Z,13.11
2022-09-24T03:35:33.005Z,13.09
2022-09-24T03:55:33.010Z,13.04
2022-09-24T04:15:33.015Z,12.97
2022-09-24T04:35:32.996Z,12.92
2022-09-24T04:55:33.001Z,12.78
2022-09-24T05:15:33.013Z,12.7
2022-09-24T05:35:32.982Z,12.65
2022-09-24T05:55:33.003Z,12.67
2022-09-24T06:35:32.975Z,12.89
2022-09-24T08:35:32.938Z,14.75
2022-09-24T08:55:32.931Z,15.16
2022-09-24T09:15:32.923Z,15.53
2022-09-24T09:35:32.904Z,15.76
2022-09-24T10:15:32.893Z,16.31
2022-09-24T10:55:32.881Z,16.36
2022-09-24T11:15:32.910Z,16.21
2022-09-24T11:35:32.866Z,16.1
2022-09-24T11:55:32.881Z,15.82
2022-09-24T12:15:32.836Z,15.64
2022-09-24T12:35:32.857Z,15.54
2022-09-24T13:35:32.806Z,15.87
2022-09-24T13:55:32.806Z,15.96
2022-09-24T14:15:32.863Z,15.82
2022-09-24T14:35:32.802Z,15.65
2022-09-24T14:55:32.811Z,15.59
2022-09-24T15:15:32.912Z,15.58
2022-09-24T15:35:32.770Z,15.43
2022-09-24T15:55:32.766Z,15.29
2022-09-24T16:35:32.754Z,15.1
2022-09-24T17:35:32.764Z,14.81
2022-09-24T18:15:32.768Z,14.67
2022-09-24T18:35:32.714Z,14.56
2022-09-24T18:55:32.698Z,14.43
2022-09-24T19:15:32.983Z,14.3
2022-09-24T19:35:32.697Z,14.19
2022-09-24T19:55:32.691Z,14.09
2022-09-24T20:15:32.735Z,13.96
2022-09-24T20:35:32.673Z,13.87
2022-09-24T20:55:32.671Z,13.76
2022-09-24T21:55:32.677Z,13.7
2022-09-24T22:15:32.643Z,13.69
2022-09-24T22:35:32.629Z,13.58
2022-09-24T22:55:32.645Z,13.53
2022-09-24T23:15:32.637Z,13.44
2022-09-24T23:35:32.643Z,13.38
2022-09-24T23:55:32.655Z,13.25
